Time;durP1;ratioP1;P1;durP2;ratioP2;P2;SDS_P1;SDS_P2;PMS_P1;PMS_P2;Temp;Humidity;BMP_temperature;BMP_pressure;BME280_temperature;BME280_humidity;BME280_pressure;Samples;Min_cycle;Max_cycle;Signal;HPM_P1;HPM_P2
2024/01/05 00:00:00;;;;;;;8.43;3.90;;;;;;;10.52;54.61;96402.66;5075872;28;20241;-72
2024/01/05 00:02:25;;;;;;;9.03;4.47;;;;;;;10.46;54.94;96391.03;5065872;28;20198;-70
2024/01/05 00:04:51;;;;;;;9.53;4.50;;;;;;;10.42;55.12;96395.00;5081120;28;20459;-70
2024/01/05 00:07:16;;;;;;;10.57;4.10;;;;;;;10.49;54.82;96405.63;5063254;28;20268;-71
2024/01/05 00:09:42;;;;;;;9.47;5.20;;;;;;;10.40;54.87;96397.78;5074991;28;20207;-69
2024/01/05 00:12:07;;;;;;;10.77;4.40;;;;;;;10.33;55.14;96385.53;5061577;28;20191;-69
2024/01/05 00:14:36;;;;;;;10.20;4.17;;;;;;;10.25;55.59;96389.00;5069557;28;20562;-68
2024/01/05 00:17:02;;;;;;;11.37;4.50;;;;;;;10.39;55.46;96377.00;5046592;28;20206;-69
2024/01/05 00:19:27;;;;;;;10.87;4.17;;;;;;;10.41;55.36;96372.41;5071647;28;20455;-70
2024/01/05 00:21:53;;;;;;;9.40;4.80;;;;;;;10.48;55.13;96378.59;5075559;28;20292;-71
2024/01/05 00:24:18;;;;;;;13.47;4.67;;;;;;;10.47;54.68;96376.97;5074204;28;20220;-71
2024/01/05 00:26:43;;;;;;;9.17;4.13;;;;;;;10.51;54.65;96380.06;5067447;28;20185;-69
2024/01/05 00:29:09;;;;;;;9.47;4.00;;;;;;;10.25;55.17;96363.63;5071260;28;20778;-69
2024/01/05 00:31:34;;;;;;;7.93;3.27;;;;;;;10.39;54.37;96361.28;5067244;28;20186;-71
2024/01/05 00:34:00;;;;;;;9.93;3.20;;;;;;;10.48;54.47;96365.50;5066994;28;20204;-71
2024/01/05 00:36:26;;;;;;;9.60;3.43;;;;;;;10.45;53.83;96360.63;5066554;28;20232;-70
2024/01/05 00:38:51;;;;;;;7.37;3.43;;;;;;;10.44;53.83;96370.25;5068534;28;20440;-69
2024/01/05 00:41:17;;;;;;;4.83;2.80;;;;;;;10.41;53.97;96373.22;5030289;28;20242;-73
2024/01/05 00:43:42;;;;;;;6.00;2.80;;;;;;;10.53;53.54;96380.69;5068353;28;20237;-70
2024/01/05 00:46:08;;;;;;;6.43;2.67;;;;;;;10.58;53.68;96378.38;5062207;28;20197;-71
2024/01/05 00:48:33;;;;;;;5.93;2.50;;;;;;;10.56;53.48;96372.50;5064627;28;20534;-71
2024/01/05 00:50:58;;;;;;;8.33;3.10;;;;;;;10.40;53.91;96374.22;5077094;28;20174;-70
2024/01/05 00:53:24;;;;;;;11.37;3.43;;;;;;;10.42;53.78;96371.44;5056263;28;20191;-69
2024/01/05 00:55:49;;;;;;;8.43;2.30;;;;;;;10.50;53.53;96370.56;5074442;28;20198;-71
2024/01/05 00:58:15;;;;;;;11.93;3.20;;;;;;;10.50;53.53;96371.38;5065023;28;20218;-69
2024/01/05 01:00:40;;;;;;;9.57;3.73;;;;;;;10.49;53.56;96372.38;5059385;28;20222;-71
2024/01/05 01:03:06;;;;;;;13.13;3.10;;;;;;;10.53;53.69;96381.53;5073390;28;20268;-70
2024/01/05 01:05:31;;;;;;;9.27;3.30;;;;;;;10.58;53.68;96378.38;5062609;28;20190;-69
2024/01/05 01:07:57;;;;;;;11.03;2.97;;;;;;;10.66;53.12;96386.19;5077287;28;20200;-70
2024/01/05 01:10:22;;;;;;;11.40;3.10;;;;;;;10.68;53.20;96388.66;5067811;28;20205;-69
2024/01/05 01:12:48;;;;;;;5.83;3.00;;;;;;;10.70;53.38;96389.31;5069991;28;20195;-72
2024/01/05 01:15:13;;;;;;;7.23;3.03;;;;;;;10.62;53.61;96384.09;5070600;28;20240;-69
2024/01/05 01:17:38;;;;;;;11.60;2.73;;;;;;;10.70;53.31;96384.88;5077717;28;20244;-69
2024/01/05 01:20:05;;;;;;;6.50;2.70;;;;;;;10.70;53.17;96374.38;5054739;28;20210;-73
2024/01/05 01:22:31;;;;;;;6.93;2.90;;;;;;;10.53;53.54;96364.97;5062715;28;20194;-69
2024/01/05 01:24:56;;;;;;;8.63;3.33;;;;;;;10.50;54.08;96360.91;5066784;28;20463;-70
2024/01/05 01:27:22;;;;;;;9.83;3.60;;;;;;;10.53;53.83;96363.19;5064578;28;20189;-69
2024/01/05 01:29:47;;;;;;;8.40;3.40;;;;;;;10.59;53.66;96370.34;5063263;28;20254;-71
2024/01/05 01:32:14;;;;;;;5.90;2.37;;;;;;;10.57;53.24;96361.84;5063706;28;20183;-71
2024/01/05 01:34:40;;;;;;;9.27;2.97;;;;;;;10.54;53.64;96351.72;5047430;28;20509;-71
2024/01/05 01:37:05;;;;;;;5.60;2.90;;;;;;;10.51;53.68;96340.78;5061736;28;20190;-72
2024/01/05 01:39:31;;;;;;;8.00;3.27;;;;;;;10.42;54.65;96337.38;5078636;28;20269;-70
2024/01/05 01:41:57;;;;;;;7.53;2.97;;;;;;;10.30;54.70;96334.28;5042750;28;20842;-71
2024/01/05 01:44:22;;;;;;;7.20;3.13;;;;;;;10.41;54.22;96330.50;5081686;28;20261;-70
2024/01/05 01:46:49;;;;;;;7.27;2.80;;;;;;;10.47;54.22;96329.81;5047357;28;20726;-70
2024/01/05 01:49:16;;;;;;;6.80;3.20;;;;;;;10.52;53.93;96329.31;5045880;28;20214;-69
2024/01/05 01:51:41;;;;;;;5.60;2.50;;;;;;;10.50;53.61;96326.84;5078990;28;20792;-72
2024/01/05 01:54:07;;;;;;;8.73;2.77;;;;;;;10.53;53.30;96308.16;5067807;28;20480;-70
2024/01/05 01:56:33;;;;;;;7.47;3.30;;;;;;;10.42;53.35;96304.13;5048478;28;20186;-69
2024/01/05 01:58:58;;;;;;;5.97;2.63;;;;;;;10.39;53.87;96306.28;5044332;28;21066;-71
2024/01/05 02:01:24;;;;;;;7.70;2.77;;;;;;;10.34;53.68;96288.44;5062126;28;20216;-70
2024/01/05 02:03:50;;;;;;;9.80;2.97;;;;;;;10.39;53.84;96293.19;5044121;28;20190;-72
2024/01/05 02:06:16;;;;;;;5.37;2.80;;;;;;;10.49;53.58;96291.16;5058722;28;20193;-70
2024/01/05 02:08:43;;;;;;;7.53;2.30;;;;;;;10.52;53.43;96296.06;5058261;28;20793;-70
2024/01/05 02:11:08;;;;;;;5.27;2.43;;;;;;;10.49;53.26;96288.53;5064712;28;20186;-71
2024/01/05 02:13:34;;;;;;;5.07;2.80;;;;;;;10.57;53.02;96285.88;5077206;28;20485;-69
2024/01/05 02:15:59;;;;;;;7.07;2.67;;;;;;;10.51;53.49;96294.41;5077980;28;20667;-71
2024/01/05 02:18:25;;;;;;;7.50;2.70;;;;;;;10.59;53.55;96286.50;5055869;28;20444;-70
2024/01/05 02:20:50;;;;;;;7.10;2.93;;;;;;;10.57;53.22;96291.13;5052887;28;20634;-71
2024/01/05 02:23:24;;;;;;;7.40;2.57;;;;;;;10.59;53.33;96281.25;5073638;28;20786;-70
2024/01/05 02:25:49;;;;;;;9.17;3.00;;;;;;;10.51;53.55;96273.47;5074025;28;20348;-71
2024/01/05 02:28:15;;;;;;;8.20;3.33;;;;;;;10.60;53.25;96271.59;5066761;28;20522;-70
2024/01/05 02:30:40;;;;;;;7.87;3.23;;;;;;;10.51;53.27;96263.00;5081106;28;20255;-71
2024/01/05 02:33:06;;;;;;;8.77;2.77;;;;;;;10.57;53.36;96258.84;5082957;28;20194;-71
2024/01/05 02:35:31;;;;;;;7.67;2.90;;;;;;;10.55;53.45;96261.66;5082383;28;20198;-71
2024/01/05 02:37:57;;;;;;;6.17;2.67;;;;;;;10.60;53.33;96258.50;5084193;28;20307;-71
2024/01/05 02:40:22;;;;;;;7.77;2.40;;;;;;;10.62;53.21;96263.56;5083005;28;20202;-71
2024/01/05 02:42:47;;;;;;;6.80;2.67;;;;;;;10.63;53.41;96265.19;5081718;28;20278;-70
2024/01/05 02:45:13;;;;;;;7.40;2.77;;;;;;;10.66;53.34;96267.47;5082737;28;20189;-69
2024/01/05 02:47:38;;;;;;;7.00;2.37;;;;;;;10.62;53.43;96269.63;5048384;28;20179;-71
2024/01/05 02:50:04;;;;;;;7.13;2.97;;;;;;;10.57;53.25;96262.31;5070656;28;20217;-70
2024/01/05 02:52:30;;;;;;;8.70;3.00;;;;;;;10.58;53.79;96263.09;5079316;28;20687;-70
2024/01/05 02:54:55;;;;;;;7.87;2.90;;;;;;;10.54;53.76;96256.56;5087154;28;20892;-71
2024/01/05 02:57:21;;;;;;;6.07;3.30;;;;;;;10.56;54.06;96254.59;5084341;28;20213;-71
2024/01/05 02:59:46;;;;;;;8.60;3.50;;;;;;;10.40;54.70;96250.28;5077114;28;20274;-69
2024/01/05 03:02:12;;;;;;;5.17;2.10;;;;;;;10.45;54.14;96243.53;5075089;28;20210;-70
2024/01/05 03:04:41;;;;;;;8.00;2.70;;;;;;;10.47;53.59;96235.50;5077374;28;20206;-71
2024/01/05 03:07:07;;;;;;;3.67;1.90;;;;;;;10.47;52.26;96234.69;5061344;28;20503;-73
2024/01/05 03:09:32;;;;;;;4.40;1.60;;;;;;;10.55;52.30;96247.72;5083364;28;21040;-69
2024/01/05 03:11:58;;;;;;;4.33;1.60;;;;;;;10.57;51.91;96245.75;5079882;28;20268;-72
2024/01/05 03:14:23;;;;;;;5.47;1.90;;;;;;;10.60;51.65;96246.22;5075179;28;20231;-72
2024/01/05 03:16:48;;;;;;;5.20;1.97;;;;;;;10.65;51.72;96242.25;5080592;28;20205;-72
2024/01/05 03:19:14;;;;;;;7.30;2.50;;;;;;;10.71;51.03;96238.94;5077770;28;20234;-72
2024/01/05 03:21:39;;;;;;;4.10;1.53;;;;;;;10.78;51.27;96233.78;5078283;28;20289;-72
2024/01/05 03:24:05;;;;;;;4.70;1.90;;;;;;;10.74;50.99;96225.47;5080543;28;20227;-71
2024/01/05 03:26:30;;;;;;;1.90;1.33;;;;;;;10.77;51.41;96222.50;5080920;28;20187;-70
2024/01/05 03:28:56;;;;;;;7.60;1.43;;;;;;;10.70;51.02;96221.59;5081438;28;20561;-69
2024/01/05 03:31:22;;;;;;;6.40;1.57;;;;;;;10.80;51.12;96209.03;5085892;28;20241;-70
2024/01/05 03:33:48;;;;;;;5.80;1.80;;;;;;;10.83;51.06;96206.06;5082499;28;20217;-71
2024/01/05 03:36:13;;;;;;;4.83;1.73;;;;;;;10.91;50.55;96205.16;5091156;28;20435;-71
2024/01/05 03:38:38;;;;;;;8.63;1.63;;;;;;;10.93;51.17;96197.94;5078468;28;20698;-71
2024/01/05 03:41:04;;;;;;;3.50;1.50;;;;;;;11.03;50.73;96202.94;5070124;28;20589;-70
2024/01/05 03:43:29;;;;;;;7.03;1.87;;;;;;;10.98;50.27;96206.09;5081465;28;20245;-71
2024/01/05 03:45:55;;;;;;;2.40;1.40;;;;;;;11.00;50.47;96209.34;5080888;28;20214;-70
2024/01/05 03:48:20;;;;;;;4.07;1.60;;;;;;;10.98;50.46;96200.00;5087787;28;20343;-71
2024/01/05 03:50:46;;;;;;;2.23;1.10;;;;;;;10.99;49.90;96193.78;5084321;28;20710;-71
2024/01/05 03:53:11;;;;;;;2.67;1.40;;;;;;;10.84;50.23;96196.41;5069609;28;20540;-72
2024/01/05 03:55:37;;;;;;;2.90;1.43;;;;;;;10.85;49.87;96205.88;5076929;28;20190;-69
2024/01/05 03:58:02;;;;;;;5.97;1.40;;;;;;;10.80;49.79;96211.66;5080609;28;20190;-71
2024/01/05 04:00:28;;;;;;;1.97;1.47;;;;;;;10.77;49.82;96209.38;5089014;28;20845;-72
2024/01/05 04:02:53;;;;;;;5.60;1.50;;;;;;;10.84;49.27;96205.06;5076501;28;20206;-71
2024/01/05 04:05:18;;;;;;;6.97;1.57;;;;;;;10.94;49.48;96204.00;5065471;28;20276;-71
2024/01/05 04:07:44;;;;;;;3.10;1.40;;;;;;;10.89;49.06;96197.47;5082574;28;20186;-71
2024/01/05 04:10:09;;;;;;;4.00;1.70;;;;;;;10.97;49.09;96203.63;5073209;28;20313;-69
2024/01/05 04:12:35;;;;;;;2.60;1.30;;;;;;;10.97;48.88;96190.53;5076565;28;20194;-71
2024/01/05 04:15:00;;;;;;;5.73;1.20;;;;;;;11.04;48.68;96183.59;5080488;28;20197;-70
2024/01/05 04:17:26;;;;;;;5.67;1.00;;;;;;;11.10;48.84;96182.03;5085009;28;20685;-70
2024/01/05 04:19:51;;;;;;;6.70;1.20;;;;;;;11.01;48.63;96183.94;5071170;28;20210;-70
2024/01/05 04:22:17;;;;;;;6.20;1.50;;;;;;;11.04;48.64;96191.44;5085238;28;20206;-71
2024/01/05 04:24:42;;;;;;;6.60;1.53;;;;;;;11.06;48.69;96178.97;5073739;28;20543;-72
2024/01/05 04:27:08;;;;;;;7.07;1.50;;;;;;;11.07;48.70;96186.66;5076404;28;20272;-72
2024/01/05 04:29:33;;;;;;;3.67;1.30;;;;;;;11.12;48.40;96169.56;5079712;28;20249;-70
2024/01/05 04:31:58;;;;;;;3.50;1.20;;;;;;;11.07;48.27;96167.50;5080310;28;20297;-72
2024/01/05 04:34:24;;;;;;;7.27;1.30;;;;;;;10.99;48.61;96164.94;5088759;28;20225;-73
2024/01/05 04:36:49;;;;;;;4.20;1.13;;;;;;;10.95;48.54;96159.25;5052487;28;20218;-70
2024/01/05 04:39:16;;;;;;;6.00;1.07;;;;;;;11.05;48.57;96162.41;5057306;28;20257;-71
2024/01/05 04:41:43;;;;;;;8.57;1.33;;;;;;;11.14;48.50;96167.59;5061319;28;20203;-71
2024/01/05 04:44:08;;;;;;;6.50;1.40;;;;;;;11.13;48.28;96165.97;5062609;28;20445;-72
2024/01/05 04:46:34;;;;;;;3.00;1.10;;;;;;;11.24;48.16;96159.41;5063800;28;20418;-71
2024/01/05 04:48:59;;;;;;;5.17;1.40;;;;;;;11.28;48.19;96164.13;5058507;28;20632;-71
2024/01/05 04:51:25;;;;;;;5.43;1.20;;;;;;;11.30;47.80;96150.84;5074261;28;20266;-72
2024/01/05 04:53:50;;;;;;;7.90;1.50;;;;;;;11.20;48.04;96162.44;5049864;28;20224;-72
2024/01/05 04:56:16;;;;;;;3.57;1.40;;;;;;;11.25;48.07;96158.44;5060098;28;20545;-70
2024/01/05 04:58:41;;;;;;;3.57;1.40;;;;;;;11.20;47.78;96153.72;5069279;28;20198;-70
2024/01/05 05:01:07;;;;;;;4.20;1.40;;;;;;;11.18;48.12;96155.72;5068692;28;20222;-70
2024/01/05 05:03:32;;;;;;;4.67;1.30;;;;;;;11.15;48.01;96164.78;5043600;28;20190;-69
2024/01/05 05:05:58;;;;;;;5.17;1.67;;;;;;;11.10;48.23;96159.25;5060887;28;20270;-69
2024/01/05 05:08:23;;;;;;;2.80;1.50;;;;;;;11.16;47.90;96155.09;5058551;28;20204;-71
2024/01/05 05:10:49;;;;;;;8.30;1.60;;;;;;;11.17;47.98;96157.53;5062260;28;20221;-72
2024/01/05 05:13:14;;;;;;;3.47;1.60;;;;;;;11.22;47.81;96154.38;5043392;28;20186;-68
2024/01/05 05:15:40;;;;;;;3.57;1.40;;;;;;;11.27;47.92;96153.81;5065288;28;20179;-70
2024/01/05 05:18:06;;;;;;;2.13;1.07;;;;;;;11.17;47.79;96157.53;5058603;28;20264;-70
2024/01/05 05:20:31;;;;;;;3.53;1.10;;;;;;;11.22;47.83;96159.63;5053456;28;20226;-71
2024/01/05 05:22:57;;;;;;;3.20;1.27;;;;;;;11.26;48.07;96154.81;5058511;28;20205;-69
2024/01/05 05:25:22;;;;;;;2.07;1.30;;;;;;;11.14;47.82;96160.53;5069207;28;20204;-71
2024/01/05 05:27:47;;;;;;;3.87;1.20;;;;;;;11.20;47.47;96149.31;5058009;28;20282;-72
2024/01/05 05:30:13;;;;;;;1.87;1.23;;;;;;;11.24;47.75;96143.69;5058576;28;20269;-70
2024/01/05 05:32:39;;;;;;;3.00;1.10;;;;;;;11.27;47.75;96140.72;5075482;28;20219;-73
2024/01/05 05:35:05;;;;;;;3.20;1.07;;;;;;;11.27;47.53;96140.72;5058972;28;20205;-69
2024/01/05 05:37:30;;;;;;;3.77;1.10;;;;;;;11.27;47.72;96138.09;5067760;28;20252;-69
2024/01/05 05:39:56;;;;;;;6.40;1.60;;;;;;;11.18;47.54;96143.44;5057207;28;20447;-72
2024/01/05 05:42:21;;;;;;;2.00;1.33;;;;;;;11.24;47.61;96141.06;5060940;28;20225;-69
2024/01/05 05:44:47;;;;;;;3.17;1.30;;;;;;;11.24;47.71;96139.28;5058579;28;20193;-70
2024/01/05 05:47:12;;;;;;;2.40;1.17;;;;;;;11.24;47.75;96143.69;5062856;28;20613;-72
2024/01/05 05:49:38;;;;;;;3.10;1.50;;;;;;;11.15;47.70;96138.56;5065466;28;20301;-70
2024/01/05 05:52:05;;;;;;;5.73;1.27;;;;;;;11.31;47.85;96142.78;5044914;28;20281;-73
2024/01/05 05:54:30;;;;;;;3.33;1.20;;;;;;;11.28;47.76;96147.59;5078693;28;20280;-71
2024/01/05 05:56:56;;;;;;;4.83;1.10;;;;;;;11.24;47.63;96141.91;5050397;28;20549;-69
2024/01/05 05:59:22;;;;;;;5.40;1.37;;;;;;;11.33;47.74;96145.25;5044654;28;20211;-70
2024/01/05 06:01:48;;;;;;;3.10;1.33;;;;;;;11.30;47.86;96140.34;5058388;28;20206;-69
2024/01/05 06:04:13;;;;;;;3.20;1.27;;;;;;;11.29;47.91;96147.38;5064412;28;20598;-70
2024/01/05 06:06:39;;;;;;;4.13;1.73;;;;;;;11.37;47.97;96157.81;5071510;28;20190;-71
2024/01/05 06:09:05;;;;;;;1.83;1.17;;;;;;;11.36;47.43;96152.72;5071718;28;20260;-70
2024/01/05 06:11:31;;;;;;;4.90;1.23;;;;;;;11.20;47.89;96151.09;5079469;28;20185;-70
2024/01/05 06:13:56;;;;;;;2.50;1.33;;;;;;;11.28;47.84;96147.59;5063880;28;20482;-69
2024/01/05 06:16:22;;;;;;;5.23;1.30;;;;;;;11.28;48.00;96139.72;5058473;28;20209;-71
2024/01/05 06:18:48;;;;;;;3.50;1.30;;;;;;;11.30;48.03;96135.91;5064613;28;20640;-70
2024/01/05 06:21:13;;;;;;;2.43;1.30;;;;;;;11.29;47.75;96143.97;5073586;28;20226;-70
2024/01/05 06:23:39;;;;;;;5.00;1.50;;;;;;;11.27;47.79;96143.31;5072793;28;20200;-70
2024/01/05 06:26:05;;;;;;;3.03;1.23;;;;;;;11.32;48.04;96156.72;5068042;28;20198;-70
2024/01/05 06:28:30;;;;;;;2.17;1.40;;;;;;;11.21;47.88;96153.53;5059407;28;20794;-69
2024/01/05 06:30:56;;;;;;;4.10;1.33;;;;;;;11.26;47.69;96155.66;5066737;28;20338;-74
2024/01/05 06:33:21;;;;;;;2.10;1.40;;;;;;;11.21;47.94;96153.53;5076283;28;20198;-70
2024/01/05 06:35:47;;;;;;;3.57;1.30;;;;;;;11.24;48.06;96155.00;5073877;28;20231;-71
2024/01/05 06:38:12;;;;;;;3.97;1.60;;;;;;;11.24;48.10;96151.56;5069981;28;20195;-72
2024/01/05 06:40:38;;;;;;;3.67;1.30;;;;;;;11.27;48.11;96159.06;5075378;28;20373;-71
2024/01/05 06:43:04;;;;;;;2.20;1.37;;;;;;;11.32;47.91;96154.09;5070802;28;20195;-71
2024/01/05 06:45:29;;;;;;;2.87;1.30;;;;;;;11.35;48.22;96157.16;5077025;28;20193;-72
2024/01/05 06:47:54;;;;;;;1.80;1.20;;;;;;;11.40;48.20;96159.25;5078501;28;20280;-71
2024/01/05 06:50:20;;;;;;;2.40;1.20;;;;;;;11.44;47.82;96144.78;5054542;28;20215;-71
2024/01/05 06:52:45;;;;;;;6.00;1.60;;;;;;;11.48;47.95;96146.00;5060431;28;20776;-70
2024/01/05 06:55:11;;;;;;;4.23;1.50;;;;;;;11.50;47.73;96145.84;5071982;28;20623;-70
2024/01/05 06:57:37;;;;;;;6.57;2.27;;;;;;;11.45;47.75;96158.69;5056333;28;20197;-70
2024/01/05 07:00:08;;;;;;;2.93;1.60;;;;;;;11.46;48.01;96165.56;5087632;28;20443;-70
2024/01/05 07:02:35;;;;;;;4.10;1.53;;;;;;;11.51;47.96;96164.00;5073169;28;20217;-71
2024/01/05 07:05:00;;;;;;;2.80;1.33;;;;;;;11.53;48.04;96161.19;5083618;28;20428;-69
2024/01/05 07:07:26;;;;;;;5.87;1.40;;;;;;;11.55;47.67;96174.94;5069627;28;20508;-71
2024/01/05 07:09:51;;;;;;;3.13;1.57;;;;;;;11.55;48.02;96172.31;5083535;28;20735;-70
2024/01/05 07:12:17;;;;;;;4.97;1.60;;;;;;;11.49;48.18;96171.25;5070177;28;20197;-70
2024/01/05 07:14:42;;;;;;;4.30;1.70;;;;;;;11.51;48.27;96169.25;5071440;28;20186;-71
2024/01/05 07:17:07;;;;;;;4.67;1.70;;;;;;;11.49;48.20;96168.63;5068985;28;20225;-70
2024/01/05 07:19:33;;;;;;;3.67;1.50;;;;;;;11.49;48.00;96165.19;5069865;28;20245;-71
2024/01/05 07:21:58;;;;;;;2.17;1.17;;;;;;;11.48;48.43;96161.75;5070107;28;20276;-71
2024/01/05 07:24:24;;;;;;;2.70;1.50;;;;;;;11.53;48.37;96161.19;5063977;28;20631;-70
2024/01/05 07:26:49;;;;;;;3.50;1.90;;;;;;;11.50;48.38;96151.88;5076524;28;20634;-70
2024/01/05 07:29:15;;;;;;;2.93;2.13;;;;;;;11.52;48.18;96156.97;5071254;28;20724;-73
2024/01/05 07:31:40;;;;;;;5.33;2.10;;;;;;;11.49;48.44;96155.50;5065954;28;20671;-71
2024/01/05 07:34:06;;;;;;;5.33;1.97;;;;;;;11.44;48.36;96155.25;5072122;28;20194;-71
2024/01/05 07:36:32;;;;;;;3.07;1.80;;;;;;;11.43;48.69;96160.66;5066269;28;20328;-71
2024/01/05 07:38:59;;;;;;;4.33;1.60;;;;;;;11.43;48.69;96160.66;5075999;28;20436;-72
2024/01/05 07:41:25;;;;;;;5.50;2.13;;;;;;;11.50;48.64;96146.63;5069268;28;20210;-71
2024/01/05 07:43:51;;;;;;;9.43;2.93;;;;;;;11.46;48.64;96153.28;5070444;28;20433;-71
2024/01/05 07:46:17;;;;;;;4.90;2.70;;;;;;;11.43;49.00;96152.81;5067228;28;20438;-69
2024/01/05 07:48:42;;;;;;;5.73;2.30;;;;;;;11.50;48.98;96159.75;5075346;28;20648;-69
2024/01/05 07:51:08;;;;;;;3.43;1.90;;;;;;;11.51;48.98;96158.75;5069759;28;20587;-71
2024/01/05 07:53:34;;;;;;;5.77;1.97;;;;;;;11.50;48.94;96156.34;5077080;28;20221;-72
2024/01/05 07:56:00;;;;;;;8.90;5.50;;;;;;;11.58;49.20;96152.78;5084374;28;20435;-71
2024/01/05 07:58:25;;;;;;;9.33;6.70;;;;;;;11.67;49.57;96162.19;5076076;28;20263;-70
2024/01/05 08:00:51;;;;;;;7.70;4.33;;;;;;;11.69;49.35;96162.81;5071669;28;20480;-71
2024/01/05 08:03:16;;;;;;;7.97;3.60;;;;;;;11.73;49.05;96171.94;5080147;28;20252;-71
2024/01/05 08:05:42;;;;;;;7.43;4.20;;;;;;;11.71;48.93;96162.63;5081728;28;20272;-69
2024/01/05 08:08:07;;;;;;;6.87;4.27;;;;;;;11.78;49.21;96159.06;5077036;28;20186;-70
2024/01/05 08:10:33;;;;;;;8.47;5.47;;;;;;;11.87;49.70;96158.94;5082301;28;20686;-71
2024/01/05 08:12:59;;;;;;;8.43;5.00;;;;;;;11.95;49.85;96166.72;5086485;28;20225;-71
2024/01/05 08:15:24;;;;;;;9.80;5.13;;;;;;;11.98;49.59;96158.47;5087982;28;20204;-69
2024/01/05 08:17:50;;;;;;;4.63;2.90;;;;;;;11.95;49.13;96153.59;5080517;28;20428;-70
2024/01/05 08:20:15;;;;;;;4.90;2.50;;;;;;;12.01;49.11;96152.06;5070495;28;20616;-71
2024/01/05 08:22:41;;;;;;;4.50;1.90;;;;;;;11.96;48.72;96149.97;5074867;28;20264;-70
2024/01/05 08:25:06;;;;;;;4.00;2.47;;;;;;;11.92;49.18;96151.34;5085607;28;20191;-70
2024/01/05 08:27:32;;;;;;;3.90;2.23;;;;;;;11.91;49.01;96152.34;5087475;28;20197;-69
2024/01/05 08:29:57;;;;;;;2.87;1.90;;;;;;;11.91;48.69;96149.72;5065057;28;20301;-70
2024/01/05 08:32:23;;;;;;;3.33;2.20;;;;;;;11.94;48.65;96151.97;5087615;28;20286;-70
2024/01/05 08:34:48;;;;;;;3.50;1.83;;;;;;;11.92;48.47;96148.72;5059511;28;20668;-71
2024/01/05 08:37:14;;;;;;;7.23;2.30;;;;;;;11.88;48.47;96147.44;5072566;28;20294;-73
2024/01/05 08:39:39;;;;;;;7.37;2.17;;;;;;;11.95;48.79;96156.22;5074599;28;20220;-71
2024/01/05 08:42:08;;;;;;;3.93;2.40;;;;;;;11.93;48.70;96148.50;5076307;28;20221;-71
2024/01/05 08:44:34;;;;;;;5.43;2.50;;;;;;;11.97;49.05;96155.03;5068803;28;20221;-71
2024/01/05 08:47:00;;;;;;;4.60;2.17;;;;;;;12.01;48.26;96155.50;5081211;28;20454;-70
2024/01/05 08:49:26;;;;;;;10.10;2.40;;;;;;;11.96;48.35;96155.22;5071101;28;20910;-71
2024/01/05 08:51:52;;;;;;;8.83;4.17;;;;;;;12.04;48.42;96149.03;5079552;28;20194;-72
2024/01/05 08:54:17;;;;;;;5.53;2.73;;;;;;;12.06;48.38;96145.25;5071237;28;20535;-73
2024/01/05 08:56:42;;;;;;;6.87;3.90;;;;;;;12.20;48.46;96150.63;5069419;28;20194;-72
2024/01/05 08:59:08;;;;;;;8.13;4.80;;;;;;;12.28;48.41;96145.22;5077801;28;20186;-71
2024/01/05 09:01:33;;;;;;;12.57;7.37;;;;;;;12.26;48.24;96150.69;5056448;28;20294;-71
2024/01/05 09:03:59;;;;;;;8.67;5.97;;;;;;;12.27;47.67;96143.59;5067709;28;20190;-72
2024/01/05 09:06:25;;;;;;;12.33;7.80;;;;;;;12.25;48.13;96148.22;5072073;28;20251;-72
2024/01/05 09:08:50;;;;;;;7.93;4.47;;;;;;;12.20;48.39;96155.88;5075694;28;20218;-72
2024/01/05 09:11:16;;;;;;;9.50;4.77;;;;;;;12.17;48.52;96157.06;5069266;28;20189;-72
2024/01/05 09:13:42;;;;;;;6.50;3.20;;;;;;;12.12;47.98;96165.50;5069054;28;20244;-71
2024/01/05 09:16:07;;;;;;;6.83;3.70;;;;;;;12.06;48.34;96166.25;5071367;28;20198;-71
2024/01/05 09:18:33;;;;;;;9.03;3.27;;;;;;;11.93;49.16;96160.84;5062260;28;20190;-70
2024/01/05 09:21:02;;;;;;;4.07;1.80;;;;;;;12.00;48.81;96169.63;5047507;28;20209;-71
2024/01/05 09:23:29;;;;;;;4.77;2.33;;;;;;;12.09;48.48;96168.53;5058989;28;20473;-70
2024/01/05 09:25:54;;;;;;;5.10;2.30;;;;;;;12.19;48.23;96172.66;5065065;28;20465;-70
2024/01/05 09:28:20;;;;;;;4.17;2.70;;;;;;;12.24;48.06;96180.75;5077282;28;20194;-70
2024/01/05 09:30:45;;;;;;;5.90;2.73;;;;;;;12.22;48.47;96180.16;5075690;28;20222;-71
2024/01/05 09:33:11;;;;;;;5.27;2.83;;;;;;;12.21;48.81;96187.19;5075711;28;20264;-70
2024/01/05 09:35:36;;;;;;;4.00;2.20;;;;;;;12.16;48.80;96194.03;5063451;28;20190;-70
2024/01/05 09:38:02;;;;;;;3.27;2.07;;;;;;;12.10;48.92;96191.13;5066615;28;20201;-70
2024/01/05 09:40:28;;;;;;;11.03;2.90;;;;;;;12.14;48.83;96202.91;5084204;28;20694;-69
2024/01/05 09:42:57;;;;;;;3.27;2.43;;;;;;;12.19;49.13;96201.53;5079055;28;20431;-70
2024/01/05 09:45:24;;;;;;;7.50;2.57;;;;;;;12.26;48.86;96200.59;5059624;28;20189;-71
2024/01/05 09:47:50;;;;;;;7.70;2.20;;;;;;;12.35;48.98;96195.22;5068307;28;20974;-70
2024/01/05 09:50:16;;;;;;;4.03;2.63;;;;;;;12.47;48.32;96193.69;5079612;28;20452;-72
2024/01/05 09:52:45;;;;;;;3.40;2.20;;;;;;;12.51;47.87;96181.00;5067226;28;20433;-71
2024/01/05 09:55:11;;;;;;;5.60;2.50;;;;;;;12.57;48.00;96181.03;5074223;28;20412;-71
2024/01/05 09:57:38;;;;;;;4.20;2.30;;;;;;;12.70;47.34;96180.34;5078878;28;20935;-71
2024/01/05 10:00:04;;;;;;;12.37;2.23;;;;;;;12.83;47.44;96166.47;5050194;28;20459;-71
2024/01/05 10:02:36;;;;;;;5.43;2.23;;;;;;;12.84;47.16;96169.94;5083969;28;20471;-72
2024/01/05 10:05:11;;;;;;;4.90;1.83;;;;;;;12.85;46.90;96168.94;5061097;28;20552;-72
2024/01/05 10:07:45;;;;;;;3.93;1.73;;;;;;;12.75;47.10;96170.06;5028617;28;20442;-73
2024/01/05 10:10:14;;;;;;;4.60;1.87;;;;;;;12.62;47.60;96164.69;5022221;28;21029;-70
2024/01/05 10:12:41;;;;;;;8.63;2.73;;;;;;;12.58;47.93;96166.91;5047841;28;20894;-72
2024/01/05 10:15:07;;;;;;;4.77;1.90;;;;;;;12.59;47.89;96180.88;5048103;28;20512;-71
2024/01/05 10:17:35;;;;;;;9.10;5.60;;;;;;;12.63;48.30;96176.84;5042488;28;20441;-72
2024/01/05 10:20:12;;;;;;;10.60;5.53;;;;;;;12.66;48.38;96175.69;5084560;28;20897;-71
2024/01/05 10:22:48;;;;;;;6.73;3.40;;;;;;;12.70;48.55;96177.72;5057681;28;20190;-74
2024/01/05 10:25:23;;;;;;;16.93;11.63;;;;;;;12.80;48.77;96187.09;5016811;28;20523;-71
2024/01/05 10:27:50;;;;;;;13.77;7.90;;;;;;;12.79;48.64;96185.47;5036710;28;20511;-73
2024/01/05 10:30:51;;;;;;;11.63;8.97;;;;;;;12.79;48.98;96175.75;5072138;28;20972;-71
2024/01/05 10:33:23;;;;;;;9.97;6.30;;;;;;;12.79;49.15;96174.94;5029437;28;20945;-74
2024/01/05 10:35:51;;;;;;;16.70;8.70;;;;;;;12.87;48.95;96180.88;5042129;28;20824;-70
2024/01/05 10:38:32;;;;;;;14.70;9.07;;;;;;;12.92;48.98;96175.03;5027001;28;20438;-68
2024/01/05 10:41:09;;;;;;;14.13;9.10;;;;;;;12.99;49.02;96170.63;5039445;28;20224;-71
2024/01/05 10:43:47;;;;;;;8.23;4.63;;;;;;;13.00;49.10;96172.25;5001874;28;20437;-73
2024/01/05 10:46:22;;;;;;;7.53;2.40;;;;;;;13.05;48.86;96169.03;5039166;28;20440;-72
2024/01/05 10:48:54;;;;;;;13.57;7.40;;;;;;;13.12;49.17;96163.81;5040751;28;20537;-71
2024/01/05 10:51:26;;;;;;;11.63;6.47;;;;;;;13.13;49.49;96162.81;5054252;28;20428;-71
2024/01/05 10:53:58;;;;;;;4.20;2.50;;;;;;;13.17;48.19;96156.97;5032863;28;20425;-70
2024/01/05 10:56:26;;;;;;;4.63;2.63;;;;;;;13.18;48.50;96148.06;5031649;28;20189;-70
2024/01/05 10:59:10;;;;;;;4.70;2.63;;;;;;;13.25;48.15;96144.69;5008769;28;20444;-72
2024/01/05 11:01:42;;;;;;;6.00;3.10;;;;;;;13.30;48.36;96144.88;5034952;28;20999;-72
2024/01/05 11:04:21;;;;;;;7.27;3.40;;;;;;;13.34;48.85;96144.31;5034955;28;20813;-73
2024/01/05 11:06:51;;;;;;;6.00;3.20;;;;;;;13.34;48.75;96146.97;5015555;28;20443;-72
2024/01/05 11:10:00;;;;;;;6.10;2.77;;;;;;;13.39;48.80;96142.91;5060779;28;21082;-72
2024/01/05 11:13:02;;;;;;;7.67;3.03;;;;;;;13.44;48.59;96140.53;5028739;28;20475;-72
2024/01/05 11:15:53;;;;;;;7.33;2.40;;;;;;;13.42;48.61;96142.56;5053412;28;20519;-72
2024/01/05 11:18:34;;;;;;;4.17;2.03;;;;;;;13.40;48.58;96141.94;5053461;28;20433;-71
2024/01/05 11:21:16;;;;;;;8.93;2.80;;;;;;;13.42;48.39;96139.91;5046486;28;20764;-73
2024/01/05 11:23:55;;;;;;;4.67;2.00;;;;;;;13.47;48.73;96150.69;5028525;28;20479;-74
2024/01/05 11:26:42;;;;;;;5.13;1.90;;;;;;;13.43;48.73;96144.19;5061444;28;20917;-73
2024/01/05 11:29:15;;;;;;;7.97;2.40;;;;;;;13.44;48.54;96146.59;5012783;28;20467;-71